Terminal Aerodrome Forecast
Issued by NWS

Home | Current Version | Previous Version | Text Only | Print | Product List | Glossary On
Versions: 1 2 3 4 5 6 7 8 9 10 11 12 13
000
FTUS46 KSGX 280520
TAFSNA
TAF
KSNA 280520Z 2806/2906 VRB05KT P6SM SKC
     FM281100 VRB04KT 2SM BR BKN003
      TEMPO 2812/2816 1/2SM FG VV001
     FM281630 VRB04KT P6SM SKC
     FM281900 22010KT P6SM SKC
     FM290300 VRB04KT P6SM FEW008=

USA.gov is the U.S. government's official web portal to all federal, state and local government web resources and services.